Time;durP1;ratioP1;P1;durP2;ratioP2;P2;SDS_P1;SDS_P2;PMS_P1;PMS_P2;Temp;Humidity;BMP_temperature;BMP_pressure;BME280_temperature;BME280_humidity;BME280_pressure;Samples;Min_cycle;Max_cycle;Signal;HPM_P1;HPM_P2
2021/06/22 00:01:35;;;;;;;26.88;13.77;;;11.30;99.90;;;;;;4198423;28;20021;-77
2021/06/22 00:03:35;;;;;;;19.67;11.50;;;11.30;99.90;;;;;;4199928;28;20029;-79
2021/06/22 00:05:37;;;;;;;20.27;11.48;;;11.20;99.90;;;;;;4194593;28;20052;-79
2021/06/22 00:07:38;;;;;;;20.63;11.70;;;11.20;99.90;;;;;;4198362;28;20032;-79
2021/06/22 00:09:39;;;;;;;19.85;12.23;;;11.20;99.90;;;;;;4198935;28;20119;-78
2021/06/22 00:11:42;;;;;;;18.95;11.88;;;11.20;99.90;;;;;;4193240;28;20028;-78
2021/06/22 00:13:42;;;;;;;24.80;14.02;;;11.20;99.90;;;;;;4190626;28;20029;-78
2021/06/22 00:15:43;;;;;;;21.25;11.63;;;11.20;99.90;;;;;;4195643;28;20035;-79
2021/06/22 00:17:44;;;;;;;24.80;12.52;;;11.20;99.90;;;;;;4199020;28;20111;-78
2021/06/22 00:19:46;;;;;;;24.10;11.77;;;11.10;99.90;;;;;;4185003;28;20345;-80
2021/06/22 00:21:47;;;;;;;22.35;12.85;;;11.20;99.90;;;;;;4198027;28;20021;-79
2021/06/22 00:23:48;;;;;;;23.33;12.13;;;11.10;99.90;;;;;;4195528;28;20452;-79
2021/06/22 00:25:50;;;;;;;22.17;12.50;;;11.10;99.90;;;;;;4190134;28;20028;-79
2021/06/22 00:27:51;;;;;;;23.48;11.80;;;11.00;99.90;;;;;;4192918;28;20147;-78
2021/06/22 00:29:52;;;;;;;23.30;13.05;;;10.90;99.90;;;;;;4183389;28;20033;-79
2021/06/22 00:31:52;;;;;;;24.67;12.95;;;11.00;99.90;;;;;;4196659;28;20383;-78
2021/06/22 00:33:53;;;;;;;33.83;14.00;;;11.00;99.90;;;;;;4196453;28;20640;-79
2021/06/22 00:35:53;;;;;;;28.65;14.13;;;11.00;99.90;;;;;;4198660;28;20102;-77
2021/06/22 00:37:54;;;;;;;27.27;14.25;;;10.90;99.90;;;;;;4194424;28;20364;-76
2021/06/22 00:39:55;;;;;;;30.23;14.68;;;10.90;99.90;;;;;;4189732;28;20024;-77
2021/06/22 00:41:55;;;;;;;23.50;14.25;;;10.90;99.90;;;;;;4198669;28;20040;-77
2021/06/22 00:44:07;;;;;;;25.08;13.60;;;10.90;99.90;;;;;;4197827;28;20028;-78
2021/06/22 00:46:08;;;;;;;25.65;13.93;;;10.80;99.90;;;;;;4182815;28;20057;-78
2021/06/22 00:48:09;;;;;;;29.67;13.65;;;10.80;99.90;;;;;;4199284;28;20344;-78
2021/06/22 00:50:10;;;;;;;27.65;14.23;;;10.80;99.90;;;;;;4199110;28;20032;-78
2021/06/22 00:52:12;;;;;;;26.85;14.75;;;10.80;99.90;;;;;;4197509;28;20028;-77
2021/06/22 00:54:15;;;;;;;21.20;13.90;;;10.80;99.90;;;;;;4197548;28;20569;-79
2021/06/22 00:56:15;;;;;;;23.38;12.98;;;10.80;99.90;;;;;;4196791;28;20403;-79
2021/06/22 00:58:16;;;;;;;28.05;14.27;;;10.70;99.90;;;;;;4196676;28;20039;-76
2021/06/22 01:00:17;;;;;;;25.27;14.35;;;10.70;99.90;;;;;;4190815;28;20021;-77
2021/06/22 01:02:18;;;;;;;26.73;14.30;;;10.70;99.90;;;;;;4194937;28;20379;-76
2021/06/22 01:04:19;;;;;;;27.13;14.25;;;10.60;99.90;;;;;;4197167;28;20028;-76
2021/06/22 01:06:21;;;;;;;26.98;14.30;;;10.60;99.90;;;;;;4195805;28;20017;-76
2021/06/22 01:08:22;;;;;;;28.80;14.60;;;10.50;99.90;;;;;;4198607;28;20029;-76
2021/06/22 01:10:23;;;;;;;28.83;14.25;;;10.50;99.90;;;;;;4198302;28;20086;-76
2021/06/22 01:12:24;;;;;;;27.55;15.23;;;10.50;99.90;;;;;;4198060;28;20029;-75
2021/06/22 01:14:26;;;;;;;27.73;14.10;;;10.40;99.90;;;;;;4196449;28;20033;-77
2021/06/22 01:16:29;;;;;;;28.50;15.25;;;10.40;99.90;;;;;;4195187;28;20044;-77
2021/06/22 01:18:30;;;;;;;28.30;15.85;;;10.40;99.90;;;;;;4195212;28;20057;-78
2021/06/22 01:20:32;;;;;;;28.38;15.07;;;10.40;99.90;;;;;;4192614;28;20075;-76
2021/06/22 01:22:33;;;;;;;31.27;15.87;;;10.40;99.90;;;;;;4197257;28;20028;-77
2021/06/22 01:24:34;;;;;;;35.22;16.20;;;10.40;99.90;;;;;;4183090;28;20043;-76
2021/06/22 01:26:37;;;;;;;35.53;16.48;;;10.40;99.90;;;;;;4198726;28;20041;-76
2021/06/22 01:28:38;;;;;;;27.90;14.98;;;10.30;99.90;;;;;;4195355;28;20074;-77
2021/06/22 01:30:38;;;;;;;35.88;17.13;;;10.30;99.90;;;;;;4198520;28;20535;-78
2021/06/22 01:32:40;;;;;;;27.65;15.32;;;10.30;99.90;;;;;;4197171;28;20131;-76
2021/06/22 01:34:40;;;;;;;31.52;16.25;;;10.20;99.90;;;;;;4197320;28;20028;-77
2021/06/22 01:36:44;;;;;;;30.98;16.27;;;10.30;99.90;;;;;;4198106;28;20053;-77
2021/06/22 01:38:45;;;;;;;28.75;15.65;;;10.20;99.90;;;;;;4198362;28;20051;-76
2021/06/22 01:40:50;;;;;;;30.00;17.13;;;10.20;99.90;;;;;;4193226;28;20025;-75
2021/06/22 01:42:51;;;;;;;39.58;18.60;;;10.20;99.90;;;;;;4190078;28;20035;-77
2021/06/22 01:44:54;;;;;;;32.83;16.65;;;10.20;99.90;;;;;;4197958;28;20094;-77
2021/06/22 01:46:55;;;;;;;34.45;17.00;;;10.20;99.90;;;;;;4198103;28;20499;-77
2021/06/22 01:48:57;;;;;;;29.50;15.32;;;10.10;99.90;;;;;;4196612;28;20036;-76
2021/06/22 01:50:58;;;;;;;34.00;17.67;;;10.10;99.90;;;;;;4197742;28;20102;-77
2021/06/22 01:52:58;;;;;;;36.85;16.63;;;10.10;99.90;;;;;;4193086;28;20476;-76
2021/06/22 01:55:08;;;;;;;34.85;15.52;;;10.10;99.90;;;;;;4191482;28;20051;-77
2021/06/22 01:57:08;;;;;;;33.80;15.85;;;10.10;99.90;;;;;;4195494;28;20559;-77
2021/06/22 01:59:09;;;;;;;29.30;15.68;;;10.00;99.90;;;;;;4178879;28;20037;-76
2021/06/22 02:01:10;;;;;;;26.40;14.50;;;10.00;99.90;;;;;;4196252;28;20063;-76
2021/06/22 02:03:18;;;;;;;37.38;16.45;;;10.00;99.90;;;;;;4186282;28;20102;-76
2021/06/22 02:05:19;;;;;;;36.65;15.35;;;10.10;99.90;;;;;;4194080;28;20106;-77
2021/06/22 02:07:19;;;;;;;32.80;16.15;;;10.10;99.90;;;;;;4196535;28;20375;-76
2021/06/22 02:09:20;;;;;;;33.15;16.98;;;10.10;99.90;;;;;;4195958;28;20432;-77
2021/06/22 02:11:21;;;;;;;34.85;16.30;;;10.10;99.90;;;;;;4188180;28;20040;-76
2021/06/22 02:13:21;;;;;;;33.83;16.75;;;10.10;99.90;;;;;;4189047;28;20044;-76
2021/06/22 02:15:22;;;;;;;27.92;16.73;;;10.10;99.90;;;;;;4196787;28;20113;-77
2021/06/22 02:17:23;;;;;;;33.85;16.98;;;10.20;99.90;;;;;;4196825;28;20386;-76
2021/06/22 02:19:26;;;;;;;33.00;16.15;;;10.10;99.90;;;;;;4196647;28;20060;-76
2021/06/22 02:21:26;;;;;;;37.50;17.45;;;10.20;99.90;;;;;;4194615;28;20946;-78
2021/06/22 02:23:27;;;;;;;39.30;16.80;;;10.20;99.90;;;;;;4187157;28;20120;-78
2021/06/22 02:25:28;;;;;;;37.08;17.65;;;10.20;99.90;;;;;;4196191;28;20189;-77
2021/06/22 02:27:31;;;;;;;32.05;17.88;;;10.10;99.90;;;;;;4197073;28;20029;-77
2021/06/22 02:29:32;;;;;;;33.60;17.00;;;10.10;99.90;;;;;;4195396;28;20095;-77
2021/06/22 02:31:34;;;;;;;36.35;17.58;;;10.20;99.90;;;;;;4196190;28;20503;-75
2021/06/22 02:33:34;;;;;;;32.63;17.65;;;10.20;99.90;;;;;;4197628;28;20040;-76
2021/06/22 02:35:36;;;;;;;35.45;16.42;;;10.20;99.90;;;;;;4197334;28;20102;-76
2021/06/22 02:37:41;;;;;;;33.72;17.23;;;10.10;99.90;;;;;;4196899;28;20110;-77
2021/06/22 02:39:42;;;;;;;28.88;15.70;;;10.20;99.90;;;;;;4195292;28;20032;-78
2021/06/22 02:41:43;;;;;;;30.48;15.52;;;10.10;99.90;;;;;;4187328;28;20030;-77
2021/06/22 02:43:44;;;;;;;34.80;16.02;;;10.10;99.90;;;;;;4190811;28;20033;-77
2021/06/22 02:45:45;;;;;;;33.30;18.48;;;10.10;99.90;;;;;;4195522;28;20020;-77
2021/06/22 02:47:46;;;;;;;29.60;16.98;;;10.10;99.90;;;;;;4194574;28;20035;-78
2021/06/22 02:49:47;;;;;;;33.55;17.02;;;10.00;99.90;;;;;;4196410;28;20020;-77
2021/06/22 02:51:48;;;;;;;34.17;16.67;;;10.00;99.90;;;;;;4192110;28;20611;-78
2021/06/22 02:53:49;;;;;;;35.75;18.00;;;10.00;99.90;;;;;;4187400;28;20094;-77
2021/06/22 02:55:49;;;;;;;34.85;17.88;;;10.00;99.90;;;;;;4197215;28;20036;-78
2021/06/22 02:57:54;;;;;;;37.80;18.50;;;10.00;99.90;;;;;;4183491;28;20079;-77
2021/06/22 02:59:55;;;;;;;39.92;18.90;;;10.00;99.90;;;;;;4195823;28;20036;-77
2021/06/22 03:01:58;;;;;;;38.78;18.10;;;10.00;99.90;;;;;;4195977;28;20036;-77
2021/06/22 03:03:59;;;;;;;33.92;17.50;;;9.90;99.90;;;;;;4189637;28;20055;-78
2021/06/22 03:05:59;;;;;;;37.78;18.92;;;9.90;99.90;;;;;;4196411;28;20483;-78
2021/06/22 03:08:01;;;;;;;41.22;18.38;;;9.90;99.90;;;;;;4195496;28;20028;-78
2021/06/22 03:10:05;;;;;;;39.30;19.15;;;9.80;99.90;;;;;;4196618;28;20024;-77
2021/06/22 03:12:06;;;;;;;38.00;18.00;;;9.80;99.90;;;;;;4195016;28;20040;-77
2021/06/22 03:14:07;;;;;;;35.50;18.50;;;9.90;99.90;;;;;;4186966;28;20480;-79
2021/06/22 03:16:08;;;;;;;45.50;18.55;;;9.80;99.90;;;;;;4178577;28;20040;-77
2021/06/22 03:18:08;;;;;;;39.90;18.80;;;9.80;99.90;;;;;;4192471;28;20115;-77
2021/06/22 03:20:10;;;;;;;43.33;18.77;;;9.80;99.90;;;;;;4191277;28;20671;-77
2021/06/22 03:22:11;;;;;;;42.85;18.02;;;9.80;99.90;;;;;;4193258;28;20413;-76
2021/06/22 03:24:13;;;;;;;43.45;20.23;;;9.80;99.90;;;;;;4195429;28;20111;-77
2021/06/22 03:26:13;;;;;;;33.15;17.42;;;9.70;99.90;;;;;;4195229;28;20491;-78
2021/06/22 03:28:14;;;;;;;42.53;18.17;;;9.80;99.90;;;;;;4183851;28;20021;-77
2021/06/22 03:30:16;;;;;;;35.10;18.00;;;9.80;99.90;;;;;;4183595;28;20428;-77
2021/06/22 03:32:17;;;;;;;37.88;18.35;;;9.80;99.90;;;;;;4195449;28;20108;-77
2021/06/22 03:34:19;;;;;;;39.25;19.65;;;9.80;99.90;;;;;;4193282;28;20033;-77
2021/06/22 03:36:20;;;;;;;38.30;18.88;;;9.90;99.90;;;;;;4184796;28;20100;-78
2021/06/22 03:38:20;;;;;;;43.92;19.67;;;9.90;99.90;;;;;;4195097;28;20092;-77
2021/06/22 03:40:21;;;;;;;33.10;17.33;;;9.90;99.90;;;;;;4194638;28;20127;-78
2021/06/22 03:42:22;;;;;;;36.20;18.08;;;9.90;99.90;;;;;;4196157;28;20056;-76
2021/06/22 03:44:23;;;;;;;41.17;19.60;;;9.90;99.90;;;;;;4188213;28;20037;-77
2021/06/22 03:46:25;;;;;;;48.42;19.90;;;9.90;99.90;;;;;;4189970;28;20021;-78
2021/06/22 03:48:25;;;;;;;40.10;17.45;;;9.90;99.90;;;;;;4195129;28;20159;-77
2021/06/22 03:50:26;;;;;;;41.42;19.08;;;9.90;99.90;;;;;;4194136;28;20037;-76
2021/06/22 03:52:27;;;;;;;39.33;19.38;;;9.90;99.90;;;;;;4195089;28;20028;-76
2021/06/22 03:54:27;;;;;;;43.30;19.50;;;10.00;99.90;;;;;;4196329;28;20037;-76
2021/06/22 03:56:29;;;;;;;40.03;18.90;;;10.00;99.90;;;;;;4185790;28;20112;-76
2021/06/22 03:58:29;;;;;;;36.00;18.63;;;10.10;99.90;;;;;;4189521;28;20087;-77
2021/06/22 04:00:31;;;;;;;40.83;18.40;;;10.20;99.90;;;;;;4180944;28;20044;-77
2021/06/22 04:02:31;;;;;;;38.72;18.10;;;10.20;99.90;;;;;;4196572;28;20633;-77
2021/06/22 04:04:32;;;;;;;41.40;17.52;;;10.30;99.90;;;;;;4194710;28;20029;-77
2021/06/22 04:06:33;;;;;;;41.50;17.40;;;10.30;99.90;;;;;;4196345;28;20039;-77
2021/06/22 04:08:37;;;;;;;36.78;18.48;;;10.30;99.90;;;;;;4196778;28;20510;-77
2021/06/22 04:10:38;;;;;;;36.95;19.25;;;10.30;99.90;;;;;;4195136;28;20039;-77
2021/06/22 04:12:39;;;;;;;39.33;18.48;;;10.40;99.90;;;;;;4196253;28;20037;-77
2021/06/22 04:14:39;;;;;;;42.38;18.35;;;10.40;99.90;;;;;;4195874;28;20052;-78
2021/06/22 04:16:40;;;;;;;40.80;18.70;;;10.40;99.90;;;;;;4195202;28;20029;-77
2021/06/22 04:18:41;;;;;;;41.42;20.00;;;10.40;99.90;;;;;;4194743;28;20430;-77
2021/06/22 04:20:41;;;;;;;35.78;17.80;;;10.30;99.90;;;;;;4182652;28;20487;-77
2021/06/22 04:22:44;;;;;;;43.60;17.58;;;10.40;99.90;;;;;;4186057;28;20032;-75
2021/06/22 04:24:44;;;;;;;42.53;18.42;;;10.40;99.90;;;;;;4195815;28;20093;-77
2021/06/22 04:26:45;;;;;;;33.45;17.08;;;10.50;99.90;;;;;;4194592;28;20047;-78
2021/06/22 04:28:46;;;;;;;34.47;17.88;;;10.60;99.90;;;;;;4194956;28;20040;-76
2021/06/22 04:30:46;;;;;;;37.83;17.77;;;10.60;99.90;;;;;;4194612;28;20052;-76
2021/06/22 04:32:47;;;;;;;36.63;17.13;;;10.70;99.90;;;;;;4180608;28;20430;-77
2021/06/22 04:34:48;;;;;;;34.95;16.65;;;10.70;99.90;;;;;;4179652;28;20041;-76
2021/06/22 04:36:49;;;;;;;34.65;16.50;;;10.80;99.90;;;;;;4178230;28;20040;-76
2021/06/22 04:38:49;;;;;;;29.80;15.48;;;10.90;99.90;;;;;;4191994;28;20044;-76
2021/06/22 04:40:50;;;;;;;33.25;17.33;;;11.00;99.90;;;;;;4179903;28;20128;-78
2021/06/22 04:42:51;;;;;;;34.92;17.33;;;11.00;99.90;;;;;;4183100;28;20111;-76
2021/06/22 04:44:52;;;;;;;35.50;17.40;;;11.10;99.90;;;;;;4194674;28;20028;-77
2021/06/22 04:46:52;;;;;;;35.67;17.27;;;11.20;99.90;;;;;;4194506;28;20024;-77
2021/06/22 04:48:53;;;;;;;35.63;17.10;;;11.30;99.90;;;;;;4194683;28;20047;-77
2021/06/22 04:50:58;;;;;;;30.30;15.48;;;11.40;99.90;;;;;;4193676;28;20028;-77
2021/06/22 04:52:59;;;;;;;27.52;16.80;;;11.30;99.90;;;;;;4195400;28;20067;-78
2021/06/22 04:54:59;;;;;;;27.20;15.40;;;11.50;99.90;;;;;;4199010;28;20056;-77
2021/06/22 04:57:00;;;;;;;34.58;16.27;;;11.60;99.90;;;;;;4196538;28;20036;-78
2021/06/22 04:59:01;;;;;;;26.88;15.50;;;11.70;99.90;;;;;;4198478;28;20043;-77
2021/06/22 05:01:04;;;;;;;30.20;15.93;;;11.70;99.90;;;;;;4197732;28;20070;-79
2021/06/22 05:03:05;;;;;;;36.33;16.85;;;11.80;99.90;;;;;;4197534;28;20037;-78
2021/06/22 05:05:06;;;;;;;27.52;16.73;;;11.90;99.90;;;;;;4197759;28;20090;-78
2021/06/22 05:07:07;;;;;;;25.58;14.43;;;12.00;99.90;;;;;;4184935;28;20055;-77
2021/06/22 05:09:07;;;;;;;35.47;15.82;;;12.10;99.90;;;;;;4198938;28;20364;-77
2021/06/22 05:11:08;;;;;;;28.60;15.43;;;12.10;99.90;;;;;;4193308;28;20029;-78
2021/06/22 05:13:13;;;;;;;28.45;16.65;;;12.20;99.90;;;;;;4188930;28;20032;-78
2021/06/22 05:15:14;;;;;;;27.85;14.02;;;12.20;99.90;;;;;;4197537;28;20407;-77
2021/06/22 05:17:14;;;;;;;25.20;14.20;;;12.20;99.90;;;;;;4198788;28;20036;-78
2021/06/22 05:19:17;;;;;;;25.65;14.63;;;12.30;99.90;;;;;;4198929;28;20032;-78
2021/06/22 05:21:18;;;;;;;19.42;13.85;;;12.30;99.90;;;;;;4187702;28;20052;-78
2021/06/22 05:23:19;;;;;;;31.70;15.63;;;12.30;99.90;;;;;;4191211;28;20029;-78
2021/06/22 05:25:20;;;;;;;25.77;15.43;;;12.40;99.90;;;;;;4190860;28;20033;-77
2021/06/22 05:27:20;;;;;;;36.25;17.50;;;12.40;99.90;;;;;;4197326;28;21445;-77
2021/06/22 05:29:21;;;;;;;24.92;14.55;;;12.40;99.90;;;;;;4195094;28;20603;-78
2021/06/22 05:31:22;;;;;;;29.55;15.63;;;12.40;99.90;;;;;;4196937;28;20040;-77
2021/06/22 05:33:23;;;;;;;27.55;15.50;;;12.40;99.90;;;;;;4196911;28;20120;-77
2021/06/22 05:35:24;;;;;;;28.83;15.65;;;12.50;99.90;;;;;;4198451;28;20033;-77
2021/06/22 05:37:25;;;;;;;34.47;18.85;;;12.40;99.90;;;;;;4198763;28;20190;-75
2021/06/22 05:39:25;;;;;;;31.05;17.58;;;12.50;99.90;;;;;;4197944;28;20036;-78
2021/06/22 05:41:27;;;;;;;27.17;14.98;;;12.50;99.90;;;;;;4196650;28;20043;-77
2021/06/22 05:43:28;;;;;;;27.38;17.13;;;12.60;99.90;;;;;;4197951;28;20033;-77
2021/06/22 05:45:29;;;;;;;25.58;15.55;;;12.60;99.90;;;;;;4198400;28;20089;-77
2021/06/22 05:47:30;;;;;;;31.65;17.83;;;12.70;99.90;;;;;;4196120;28;20421;-77
2021/06/22 05:49:30;;;;;;;31.88;17.58;;;12.80;99.90;;;;;;4196511;28;20094;-78
2021/06/22 05:51:31;;;;;;;32.85;16.60;;;12.90;99.90;;;;;;4196441;28;20353;-78
2021/06/22 05:53:32;;;;;;;23.73;16.63;;;13.00;99.90;;;;;;4194011;28;20450;-76
2021/06/22 05:55:32;;;;;;;36.00;18.52;;;13.10;99.90;;;;;;4190289;28;20029;-77
2021/06/22 05:57:33;;;;;;;26.00;16.45;;;13.20;99.90;;;;;;4188551;28;20029;-77
2021/06/22 05:59:34;;;;;;;32.55;17.48;;;13.30;99.90;;;;;;4188564;28;20044;-78
2021/06/22 06:01:34;;;;;;;34.20;18.67;;;13.40;99.90;;;;;;4190859;28;20033;-78
2021/06/22 06:03:35;;;;;;;27.65;16.55;;;13.50;99.90;;;;;;4189761;28;20483;-76
2021/06/22 06:05:36;;;;;;;26.58;17.52;;;13.70;99.90;;;;;;4190000;28;20032;-78
2021/06/22 06:07:36;;;;;;;33.17;17.42;;;13.70;99.90;;;;;;4194654;28;20524;-79
2021/06/22 06:09:37;;;;;;;27.98;18.42;;;13.80;99.90;;;;;;4196996;28;20324;-78
2021/06/22 06:11:38;;;;;;;23.33;16.30;;;14.00;99.90;;;;;;4196547;28;20479;-78
2021/06/22 06:13:39;;;;;;;27.85;18.83;;;14.30;99.90;;;;;;4195513;28;20041;-77
2021/06/22 06:15:39;;;;;;;23.40;17.52;;;14.50;99.90;;;;;;4196249;28;20471;-79
2021/06/22 06:17:41;;;;;;;20.05;15.57;;;14.60;99.90;;;;;;4191372;28;20069;-78
2021/06/22 06:19:41;;;;;;;20.25;15.75;;;14.70;99.90;;;;;;4189244;28;20045;-78
2021/06/22 06:21:42;;;;;;;26.60;18.30;;;14.80;99.90;;;;;;4193827;28;20040;-78
2021/06/22 06:23:48;;;;;;;23.15;16.00;;;15.00;99.90;;;;;;4194700;28;20460;-79
2021/06/22 06:25:49;;;;;;;22.55;15.35;;;15.00;99.90;;;;;;4189717;28;20106;-78
2021/06/22 06:27:52;;;;;;;18.02;14.73;;;14.90;99.90;;;;;;4194288;28;20048;-77
2021/06/22 06:31:54;;;;;;;21.52;16.10;;;15.20;99.90;;;;;;4194535;28;20028;-78
2021/06/22 06:33:55;;;;;;;20.23;15.52;;;15.20;99.90;;;;;;4195090;28;20029;-79
2021/06/22 06:35:55;;;;;;;20.52;15.63;;;15.30;99.90;;;;;;4195650;28;20083;-76
2021/06/22 06:37:56;;;;;;;26.27;16.40;;;15.30;99.90;;;;;;4196573;28;20428;-78
2021/06/22 06:39:57;;;;;;;24.73;15.43;;;15.20;99.90;;;;;;4190875;28;20037;-78
2021/06/22 06:41:58;;;;;;;20.60;14.93;;;15.30;99.90;;;;;;4196582;28;20472;-79
2021/06/22 06:43:58;;;;;;;23.63;15.63;;;15.30;99.90;;;;;;4176275;28;20033;-79
2021/06/22 06:45:59;;;;;;;18.35;14.65;;;15.40;99.90;;;;;;4196814;28;20056;-78
2021/06/22 06:48:06;;;;;;;19.42;15.60;;;15.50;99.90;;;;;;4193045;28;20107;-78
2021/06/22 06:50:07;;;;;;;19.27;14.63;;;15.60;99.90;;;;;;4193629;28;20565;-79
2021/06/22 06:52:08;;;;;;;20.35;14.43;;;15.50;99.90;;;;;;4190211;28;20017;-79
2021/06/22 06:54:08;;;;;;;21.20;16.67;;;15.60;99.90;;;;;;4197010;28;20447;-79
2021/06/22 06:56:09;;;;;;;25.23;15.15;;;15.70;99.90;;;;;;4193649;28;20029;-80
2021/06/22 06:58:10;;;;;;;20.52;16.05;;;15.70;99.90;;;;;;4195055;28;20488;-79
2021/06/22 07:00:12;;;;;;;17.48;14.88;;;15.70;99.90;;;;;;4197268;28;20032;-79
2021/06/22 07:02:14;;;;;;;20.75;15.07;;;15.70;99.90;;;;;;4195583;28;20013;-78
2021/06/22 07:04:14;;;;;;;22.25;15.95;;;15.80;99.90;;;;;;4185857;28;20033;-78
2021/06/22 07:06:16;;;;;;;20.70;16.30;;;15.80;99.90;;;;;;4195517;28;20105;-79
2021/06/22 07:08:17;;;;;;;21.45;16.27;;;16.00;99.90;;;;;;4195770;28;20044;-79
2021/06/22 07:10:18;;;;;;;22.20;16.35;;;16.00;99.90;;;;;;4181471;28;20450;-79
2021/06/22 07:12:18;;;;;;;25.15;17.58;;;16.10;99.90;;;;;;4197175;28;20040;-78
2021/06/22 07:14:20;;;;;;;21.83;15.90;;;16.30;99.90;;;;;;4195887;28;20021;-78
2021/06/22 07:16:21;;;;;;;20.92;15.75;;;16.30;99.90;;;;;;4195660;28;20142;-78
2021/06/22 07:18:29;;;;;;;20.98;15.55;;;16.40;99.90;;;;;;4196683;28;20067;-77
2021/06/22 07:20:29;;;;;;;24.20;15.95;;;16.40;99.90;;;;;;4185709;28;20090;-77
2021/06/22 07:22:30;;;;;;;21.77;17.63;;;16.50;99.90;;;;;;4183066;28;20036;-78
2021/06/22 07:24:31;;;;;;;21.95;16.30;;;16.50;99.90;;;;;;4195980;28;20041;-78
2021/06/22 07:26:35;;;;;;;23.27;17.17;;;16.50;99.90;;;;;;4194922;28;20040;-78
2021/06/22 07:28:37;;;;;;;21.60;15.88;;;16.30;99.90;;;;;;4195207;28;20035;-77
2021/06/22 07:30:38;;;;;;;25.45;17.50;;;16.30;99.90;;;;;;4192493;28;20113;-78
2021/06/22 07:32:39;;;;;;;18.40;15.63;;;16.30;99.90;;;;;;4193747;28;20463;-77
2021/06/22 07:34:39;;;;;;;22.65;15.85;;;16.30;99.90;;;;;;4193006;28;20067;-77
2021/06/22 07:36:40;;;;;;;19.77;14.82;;;16.40;99.90;;;;;;4196571;28;20115;-78
2021/06/22 07:38:40;;;;;;;21.20;15.88;;;16.40;99.90;;;;;;4187828;28;20041;-78
2021/06/22 07:40:41;;;;;;;23.63;16.55;;;16.20;99.90;;;;;;4190787;28;20037;-78
2021/06/22 07:42:42;;;;;;;22.80;16.45;;;16.40;99.90;;;;;;4185838;28;20127;-77
2021/06/22 07:44:43;;;;;;;20.23;15.90;;;16.50;99.90;;;;;;4189815;28;20029;-78
2021/06/22 07:46:44;;;;;;;20.55;15.45;;;16.70;99.90;;;;;;4195424;28;20075;-78
2021/06/22 07:48:44;;;;;;;19.33;15.25;;;16.80;99.90;;;;;;4195238;28;20453;-78
2021/06/22 07:50:45;;;;;;;19.08;15.65;;;17.10;99.90;;;;;;4194491;28;20380;-78
2021/06/22 07:52:46;;;;;;;26.08;16.42;;;17.30;99.90;;;;;;4193582;28;20487;-77
2021/06/22 07:54:47;;;;;;;21.63;15.80;;;17.40;99.90;;;;;;4196155;28;20483;-78
2021/06/22 07:56:48;;;;;;;21.60;16.40;;;17.30;99.90;;;;;;4196161;28;20040;-79
2021/06/22 07:58:50;;;;;;;18.10;14.82;;;17.30;99.90;;;;;;4189555;28;20037;-76
2021/06/22 08:00:54;;;;;;;19.98;14.82;;;17.20;99.90;;;;;;4187858;28;20033;-76
2021/06/22 08:02:55;;;;;;;18.63;14.88;;;17.20;99.90;;;;;;4196125;28;20112;-78
2021/06/22 08:04:56;;;;;;;17.58;13.82;;;17.40;99.90;;;;;;4184081;28;20122;-76
2021/06/22 08:06:57;;;;;;;23.48;15.98;;;17.50;99.90;;;;;;4195016;28;20033;-77
2021/06/22 08:08:58;;;;;;;17.25;14.00;;;17.60;99.90;;;;;;4195169;28;20375;-78
2021/06/22 08:10:58;;;;;;;15.45;13.65;;;17.50;99.90;;;;;;4194979;28;20123;-77
2021/06/22 08:12:59;;;;;;;18.70;13.85;;;17.50;99.90;;;;;;4194525;28;20562;-77
2021/06/22 08:15:00;;;;;;;19.70;14.73;;;17.60;99.90;;;;;;4193330;28;20376;-77
2021/06/22 08:17:01;;;;;;;14.48;12.93;;;17.80;99.90;;;;;;4193576;28;20044;-80
2021/06/22 08:19:02;;;;;;;20.67;13.75;;;17.70;99.90;;;;;;4180860;28;20089;-79
2021/06/22 08:21:04;;;;;;;18.88;13.50;;;17.80;99.90;;;;;;4183583;28;20032;-78
2021/06/22 08:23:05;;;;;;;18.33;13.48;;;17.60;99.90;;;;;;4194620;28;20041;-78
2021/06/22 08:25:08;;;;;;;19.70;13.70;;;17.60;99.90;;;;;;4194778;28;20124;-77
2021/06/22 08:27:08;;;;;;;16.73;14.35;;;17.60;99.90;;;;;;4182718;28;20064;-75
2021/06/22 08:29:09;;;;;;;19.60;14.32;;;17.60;99.90;;;;;;4198526;28;20048;-76
2021/06/22 08:31:11;;;;;;;17.00;14.23;;;17.30;99.90;;;;;;4197905;28;20340;-77
2021/06/22 08:33:13;;;;;;;22.73;14.63;;;17.30;99.90;;;;;;4197960;28;20103;-76
2021/06/22 08:35:14;;;;;;;19.90;14.40;;;17.30;99.90;;;;;;4199115;28;20824;-77
2021/06/22 08:37:15;;;;;;;18.70;13.23;;;17.20;99.90;;;;;;4199305;28;20479;-77
2021/06/22 08:39:15;;;;;;;24.55;14.32;;;17.20;99.90;;;;;;4199099;28;20032;-77
2021/06/22 08:41:17;;;;;;;18.48;13.93;;;17.10;99.90;;;;;;4197359;28;20570;-77
2021/06/22 08:43:18;;;;;;;17.08;14.60;;;17.10;99.90;;;;;;4197685;28;20021;-76
2021/06/22 08:45:19;;;;;;;16.52;14.55;;;17.10;99.90;;;;;;4199333;28;20028;-78
2021/06/22 08:47:24;;;;;;;20.70;14.90;;;17.00;99.90;;;;;;4199539;28;20514;-77
2021/06/22 08:49:25;;;;;;;24.05;13.93;;;17.00;99.90;;;;;;4194868;28;20033;-77
2021/06/22 08:51:26;;;;;;;19.80;14.05;;;17.10;99.90;;;;;;4197131;28;20353;-77
2021/06/22 08:53:29;;;;;;;14.65;13.10;;;17.10;99.90;;;;;;4196805;28;20047;-79
2021/06/22 08:55:30;;;;;;;;;;;17.00;99.90;;;;;;4195374;28;20580;-79
2021/06/22 08:57:32;;;;;;;21.52;13.35;;;17.00;99.90;;;;;;4197559;28;19909;-78
2021/06/22 08:59:33;;;;;;;18.42;12.88;;;17.10;99.90;;;;;;4198578;28;20040;-77
2021/06/22 09:01:33;;;;;;;19.17;14.85;;;17.30;99.90;;;;;;4197487;28;20552;-77
2021/06/22 09:03:35;;;;;;;25.23;14.15;;;17.20;99.90;;;;;;4180932;28;20041;-77
2021/06/22 09:05:36;;;;;;;15.48;12.48;;;17.30;99.90;;;;;;4190832;28;20039;-77
2021/06/22 09:07:56;;;;;;;16.75;12.00;;;17.60;99.90;;;;;;4197901;28;20179;-80
2021/06/22 09:09:57;;;;;;;18.08;12.52;;;17.80;99.90;;;;;;4197385;28;20112;-75
2021/06/22 09:12:09;;;;;;;18.30;13.00;;;18.10;99.90;;;;;;4198076;28;20369;-76
2021/06/22 09:14:10;;;;;;;13.68;12.23;;;17.80;99.90;;;;;;4196637;28;20598;-79
2021/06/22 09:16:14;;;;;;;22.42;12.55;;;18.40;99.90;;;;;;4206829;28;20032;-78
2021/06/22 09:18:36;;;;;;;22.10;13.27;;;18.60;99.90;;;;;;4196132;28;20415;-78
2021/06/22 09:20:40;;;;;;;15.82;12.38;;;18.80;99.90;;;;;;4190696;28;20036;-78
2021/06/22 09:22:41;;;;;;;18.55;11.43;;;18.90;99.90;;;;;;4193914;28;20028;-77
2021/06/22 09:25:09;;;;;;;17.52;13.48;;;19.00;99.90;;;;;;4197284;28;20511;-77
2021/06/22 09:27:10;;;;;;;18.80;11.95;;;19.10;99.90;;;;;;4197992;28;20028;-77
2021/06/22 09:29:13;;;;;;;15.20;12.45;;;19.30;99.90;;;;;;4194919;28;21378;-78
2021/06/22 09:31:18;;;;;;;17.55;10.70;;;19.60;99.90;;;;;;4194575;28;20544;-77
2021/06/22 09:33:30;;;;;;;13.50;11.95;;;20.10;99.90;;;;;;4195873;28;20048;-78
2021/06/22 09:35:32;;;;;;;11.13;9.97;;;20.10;99.90;;;;;;4197551;28;20033;-77
2021/06/22 09:37:54;;;;;;;14.10;10.30;;;20.10;99.90;;;;;;4197472;28;20467;-78
2021/06/22 09:39:54;;;;;;;17.02;11.48;;;20.00;99.90;;;;;;4193684;28;20028;-77
2021/06/22 09:41:56;;;;;;;16.08;11.45;;;20.20;99.90;;;;;;4196748;28;20044;-79
2021/06/22 09:44:08;;;;;;;20.20;11.13;;;20.60;99.90;;;;;;4197623;28;20032;-78
2021/06/22 09:46:10;;;;;;;13.80;9.90;;;20.60;99.90;;;;;;4194827;28;20029;-78
2021/06/22 09:48:11;;;;;;;13.10;10.03;;;20.50;99.90;;;;;;4195208;28;20031;-78
2021/06/22 09:50:50;;;;;;;11.98;10.13;;;20.10;99.90;;;;;;4196070;28;20481;-78
2021/06/22 09:52:51;;;;;;;13.23;10.30;;;19.90;99.90;;;;;;4154059;28;20045;-78
2021/06/22 09:54:54;;;;;;;12.57;8.77;;;19.80;99.90;;;;;;4154918;28;20108;-78
2021/06/22 09:57:01;;;;;;;12.65;8.93;;;19.80;99.90;;;;;;4140656;28;20038;-77
2021/06/22 09:59:07;;;;;;;11.57;8.73;;;19.50;99.90;;;;;;4194773;28;20036;-78
2021/06/22 10:01:31;;;;;;;8.80;8.00;;;19.30;99.90;;;;;;4195208;28;20176;-76
2021/06/22 10:03:37;;;;;;;12.80;8.43;;;19.60;99.90;;;;;;4194908;28;20044;-78
2021/06/22 10:05:54;;;;;;;14.30;9.10;;;19.80;99.90;;;;;;4195095;28;20059;-77
2021/06/22 10:08:02;;;;;;;16.80;9.50;;;20.00;99.90;;;;;;4193817;28;20027;-76
2021/06/22 10:10:05;;;;;;;13.98;9.27;;;19.90;99.90;;;;;;4194944;28;20036;-77
2021/06/22 10:12:06;;;;;;;;;;;19.80;99.90;;;;;;4195720;28;20371;-77
2021/06/22 10:14:22;;;;;;;12.38;8.93;;;19.70;99.90;;;;;;4196728;28;19908;-77
2021/06/22 10:16:24;;;;;;;13.38;9.45;;;19.60;99.90;;;;;;4195481;28;20036;-75
2021/06/22 10:18:25;;;;;;;17.73;9.30;;;19.50;99.90;;;;;;4195092;28;20576;-76
2021/06/22 10:20:26;;;;;;;14.13;9.15;;;19.40;99.90;;;;;;4195214;28;20040;-78
2021/06/22 10:22:28;;;;;;;10.88;8.23;;;19.40;99.90;;;;;;4195236;28;20044;-77